Time;durP1;ratioP1;P1;durP2;ratioP2;P2;SDS_P1;SDS_P2;PMS_P1;PMS_P2;Temp;Humidity;BMP_temperature;BMP_pressure;BME280_temperature;BME280_humidity;BME280_pressure;Samples;Min_cycle;Max_cycle;Signal;HPM_P1;HPM_P2
2022/02/07 00:02:02;;;;;;;4.53;1.27;;;4.20;90.60;;;;;;6128603;22;97553;-70
2022/02/07 00:04:34;;;;;;;7.47;1.73;;;4.20;90.30;;;;;;6156105;22;92390;-70
2022/02/07 00:07:02;;;;;;;3.90;1.30;;;4.20;90.50;;;;;;6155678;22;92352;-70
2022/02/07 00:09:30;;;;;;;6.40;1.35;;;4.20;90.20;;;;;;6128802;22;95762;-70
2022/02/07 00:11:57;;;;;;;6.40;1.25;;;4.30;89.70;;;;;;6155760;22;92968;-70
2022/02/07 00:14:24;;;;;;;9.75;1.65;;;4.30;90.00;;;;;;6154847;22;103324;-70
2022/02/07 00:16:51;;;;;;;7.50;1.65;;;4.30;90.00;;;;;;6156601;22;91624;-70
2022/02/07 00:19:22;;;;;;;6.28;1.45;;;4.40;89.10;;;;;;6155501;22;93163;-73
2022/02/07 00:21:50;;;;;;;8.38;1.85;;;4.50;88.70;;;;;;6129032;22;95504;-72
2022/02/07 00:24:18;;;;;;;6.00;1.83;;;4.60;89.30;;;;;;6154164;22;94812;-72
2022/02/07 00:26:45;;;;;;;7.68;1.33;;;4.70;89.20;;;;;;6155810;22;92411;-72
2022/02/07 00:29:12;;;;;;;10.45;1.40;;;4.70;89.00;;;;;;6128592;22;95925;-72
2022/02/07 00:31:40;;;;;;;9.63;2.08;;;4.70;88.10;;;;;;6128765;22;95633;-72
2022/02/07 00:34:07;;;;;;;10.00;1.85;;;4.80;88.00;;;;;;6155613;22;92859;-73
2022/02/07 00:36:34;;;;;;;5.07;1.48;;;4.90;87.20;;;;;;6129032;22;92509;-72
2022/02/07 00:39:09;;;;;;;6.45;1.77;;;4.90;87.20;;;;;;6155527;22;93147;-73
2022/02/07 00:41:46;;;;;;;8.30;1.50;;;5.00;86.00;;;;;;6129811;22;93060;-72
2022/02/07 00:44:16;;;;;;;5.50;1.13;;;5.00;87.10;;;;;;6129069;22;92384;-72
2022/02/07 00:46:49;;;;;;;6.30;1.30;;;4.90;85.60;;;;;;6128874;22;92415;-73
2022/02/07 00:49:16;;;;;;;4.65;1.05;;;4.90;85.30;;;;;;6126393;22;98073;-73
2022/02/07 00:51:43;;;;;;;6.28;1.10;;;4.80;86.30;;;;;;6128695;22;96398;-73
2022/02/07 00:54:11;;;;;;;5.75;1.23;;;4.80;87.60;;;;;;6128540;22;92451;-72
2022/02/07 00:56:38;;;;;;;9.68;1.60;;;4.70;87.90;;;;;;6155449;22;100164;-72
2022/02/07 00:59:05;;;;;;;7.25;1.55;;;4.60;88.70;;;;;;6103987;22;95433;-72
2022/02/07 01:01:32;;;;;;;8.90;1.40;;;4.60;89.50;;;;;;6128698;22;95703;-72
2022/02/07 01:03:59;;;;;;;6.20;1.70;;;4.60;90.00;;;;;;6129288;22;92487;-72
2022/02/07 01:06:34;;;;;;;8.63;1.65;;;4.70;89.70;;;;;;6129246;22;91685;-72
2022/02/07 01:09:20;;;;;;;4.95;1.85;;;4.70;90.00;;;;;;6128348;22;94047;-72
2022/02/07 01:12:18;;;;;;;10.73;2.30;;;4.70;90.10;;;;;;6129029;22;95242;-73
2022/02/07 01:51:11;;;;;;;13.52;2.08;;;5.30;87.80;;;;;;6128782;22;92755;-72
2022/02/07 01:56:20;;;;;;;8.90;1.70;;;5.40;86.40;;;;;;6128391;22;94003;-72
2022/02/07 01:58:51;;;;;;;10.15;2.22;;;5.40;87.30;;;;;;6128871;22;92406;-72
2022/02/07 02:01:28;;;;;;;12.93;1.98;;;5.50;87.20;;;;;;6128581;22;91668;-72
2022/02/07 02:03:55;;;;;;;12.27;2.38;;;5.50;86.10;;;;;;6128521;22;94287;-73
2022/02/07 02:06:24;;;;;;;5.93;1.80;;;5.40;86.30;;;;;;6128056;22;95021;-73
2022/02/07 02:08:56;;;;;;;13.47;2.53;;;5.40;87.00;;;;;;6127438;22;94837;-72
2022/02/07 02:11:26;;;;;;;8.70;1.63;;;5.40;88.40;;;;;;6104313;22;92441;-72
2022/02/07 02:16:59;;;;;;;13.50;1.92;;;5.40;87.20;;;;;;6154578;22;92949;-72
2022/02/07 02:36:23;;;;;;;15.98;2.67;;;5.80;86.00;;;;;;6126809;22;97961;-74
2022/02/07 02:46:51;;;;;;;9.73;2.47;;;5.90;86.50;;;;;;6128011;22;95626;-72
2022/02/07 02:49:22;;;;;;;17.35;2.88;;;5.90;86.80;;;;;;6128277;22;95141;-73
2022/02/07 02:51:49;;;;;;;11.75;2.10;;;5.90;86.70;;;;;;6128153;22;92426;-73
2022/02/07 02:54:16;;;;;;;11.02;2.05;;;5.90;86.30;;;;;;6128663;22;92091;-73
2022/02/07 02:56:43;;;;;;;14.23;2.53;;;5.90;85.90;;;;;;6103610;22;93255;-72
2022/02/07 02:59:11;;;;;;;8.35;1.95;;;5.80;85.50;;;;;;6103326;22;94979;-72
2022/02/07 03:01:39;;;;;;;15.77;2.50;;;5.80;86.00;;;;;;6126440;22;94888;-73
2022/02/07 03:04:12;;;;;;;7.10;1.50;;;5.80;86.90;;;;;;6154912;22;92391;-72
2022/02/07 03:06:40;;;;;;;12.45;2.08;;;5.80;86.50;;;;;;6127587;22;95435;-74
2022/02/07 03:09:13;;;;;;;7.22;2.28;;;5.90;86.80;;;;;;6103319;22;95230;-73
2022/02/07 03:11:43;;;;;;;10.23;2.28;;;5.90;86.40;;;;;;6128911;22;92429;-73
2022/02/07 03:14:20;;;;;;;6.47;1.85;;;5.90;85.90;;;;;;6129637;22;92862;-73
2022/02/07 03:16:50;;;;;;;10.32;2.22;;;6.00;86.20;;;;;;6129194;22;95776;-73
2022/02/07 03:19:19;;;;;;;11.90;1.58;;;6.00;85.70;;;;;;6129587;22;94132;-73
2022/02/07 03:21:54;;;;;;;12.00;2.45;;;6.10;85.80;;;;;;6129678;22;92493;-73
2022/02/07 03:24:21;;;;;;;15.60;2.58;;;6.10;85.70;;;;;;6129301;22;92462;-73
2022/02/07 03:27:11;;;;;;;14.57;2.60;;;6.10;86.30;;;;;;6138152;22;95862;-73
2022/02/07 03:29:43;;;;;;;14.80;2.85;;;6.10;86.20;;;;;;6128938;22;97656;-73
2022/02/07 03:32:13;;;;;;;9.15;2.38;;;6.10;86.10;;;;;;6129168;22;92345;-73
2022/02/07 03:34:57;;;;;;;13.33;2.33;;;6.10;85.40;;;;;;6129428;22;92538;-73
2022/02/07 03:37:24;;;;;;;13.52;2.67;;;6.10;86.60;;;;;;6155716;22;93395;-73
2022/02/07 03:39:52;;;;;;;7.80;2.65;;;6.10;87.00;;;;;;6128581;22;94798;-73
2022/02/07 03:42:20;;;;;;;11.05;2.30;;;6.20;86.90;;;;;;6129358;22;92471;-73
2022/02/07 03:45:01;;;;;;;10.07;2.22;;;6.20;85.90;;;;;;6130000;22;91645;-73
2022/02/07 03:47:32;;;;;;;8.07;2.00;;;6.20;87.40;;;;;;6128377;22;94434;-73
2022/02/07 03:49:59;;;;;;;8.73;2.60;;;6.20;87.40;;;;;;6129089;22;95186;-73
2022/02/07 03:52:28;;;;;;;16.60;3.67;;;6.30;87.70;;;;;;6127699;22;94847;-73
2022/02/07 03:54:55;;;;;;;17.73;2.22;;;6.20;86.90;;;;;;6129383;22;92444;-73
2022/02/07 03:57:22;;;;;;;14.65;2.38;;;6.10;86.90;;;;;;6104307;22;95220;-73
2022/02/07 03:59:49;;;;;;;6.85;1.92;;;6.10;87.70;;;;;;6128772;22;95494;-73
2022/02/07 04:02:19;;;;;;;9.35;2.22;;;6.10;87.80;;;;;;6129046;22;92473;-73
2022/02/07 04:04:54;;;;;;;12.70;2.63;;;6.00;87.80;;;;;;6128592;22;92600;-73
2022/02/07 04:07:21;;;;;;;11.18;2.70;;;5.90;88.40;;;;;;6128746;22;95283;-73
2022/02/07 04:09:53;;;;;;;22.17;3.30;;;5.80;88.30;;;;;;6104778;22;94589;-73
2022/02/07 04:12:24;;;;;;;16.55;2.83;;;5.90;88.60;;;;;;6129617;22;92831;-73
2022/02/07 04:15:00;;;;;;;18.25;2.65;;;5.80;88.10;;;;;;6129455;22;92421;-73
2022/02/07 04:17:29;;;;;;;11.20;2.13;;;5.70;88.80;;;;;;6127194;22;97473;-73
2022/02/07 04:20:04;;;;;;;10.65;2.50;;;5.70;88.50;;;;;;6129165;22;97637;-73
2022/02/07 04:22:49;;;;;;;9.45;1.85;;;5.70;88.50;;;;;;6129073;22;92455;-73
2022/02/07 04:25:42;;;;;;;8.63;1.95;;;5.60;88.60;;;;;;6135116;22;92480;-73
2022/02/07 04:28:17;;;;;;;11.90;2.08;;;5.60;88.40;;;;;;6129294;22;95461;-73
2022/02/07 04:30:46;;;;;;;15.93;3.13;;;5.60;88.90;;;;;;6129463;22;93613;-73
2022/02/07 04:33:15;;;;;;;18.63;3.00;;;5.60;89.10;;;;;;6129094;22;92402;-73
2022/02/07 04:35:42;;;;;;;12.20;2.45;;;5.60;89.30;;;;;;6129277;22;91815;-73
2022/02/07 04:38:09;;;;;;;13.73;2.30;;;5.60;88.90;;;;;;6128608;22;94132;-73
2022/02/07 04:40:39;;;;;;;10.18;2.70;;;5.70;88.60;;;;;;6104585;22;95241;-73
2022/02/07 04:43:09;;;;;;;7.90;2.10;;;5.70;88.40;;;;;;6127646;22;94947;-73
2022/02/07 04:59:02;;;;;;;4.32;1.13;;;5.50;86.60;;;;;;6128640;22;95422;-73
2022/02/07 05:01:35;;;;;;;3.60;0.88;;;5.60;85.70;;;;;;6129069;22;94897;-73
2022/02/07 05:04:20;;;;;;;4.35;1.23;;;5.50;86.80;;;;;;6105814;22;92532;-73
2022/02/07 05:15:07;;;;;;;5.07;1.38;;;5.40;88.80;;;;;;6128851;22;92406;-73
2022/02/07 05:17:38;;;;;;;5.53;2.47;;;5.40;88.00;;;;;;6128712;22;92506;-73
2022/02/07 05:20:15;;;;;;;2.63;0.70;;;5.40;88.00;;;;;;6128796;22;95748;-73
2022/02/07 05:22:46;;;;;;;5.72;1.33;;;5.30;88.00;;;;;;6155255;22;92922;-73
2022/02/07 05:25:22;;;;;;;5.47;1.55;;;5.30;87.90;;;;;;6129111;22;92330;-73
2022/02/07 05:28:10;;;;;;;10.25;1.95;;;5.30;87.90;;;;;;6133408;22;91620;-73
2022/02/07 05:30:46;;;;;;;8.98;2.08;;;5.30;88.60;;;;;;6128820;22;95778;-73
2022/02/07 05:33:32;;;;;;;6.53;1.42;;;5.40;88.80;;;;;;6133134;22;92540;-73
2022/02/07 05:36:15;;;;;;;7.20;1.20;;;5.40;87.70;;;;;;6153825;22;94753;-73
2022/02/07 05:39:19;;;;;;;7.03;1.48;;;5.50;87.50;;;;;;6112420;22;92520;-73
2022/02/07 05:42:03;;;;;;;8.52;1.83;;;5.50;87.50;;;;;;6131193;22;93302;-73
2022/02/07 05:44:46;;;;;;;9.30;1.40;;;5.60;87.40;;;;;;6087263;22;95533;-73
2022/02/07 05:47:32;;;;;;;9.10;1.60;;;5.60;87.10;;;;;;6155553;22;92473;-73
2022/02/07 05:50:28;;;;;;;11.48;1.92;;;5.60;87.40;;;;;;6141490;22;92300;-73
2022/02/07 05:53:18;;;;;;;9.77;1.58;;;5.60;87.50;;;;;;6098898;22;92958;-73
2022/02/07 05:55:54;;;;;;;10.90;1.92;;;5.60;87.60;;;;;;6155423;22;92905;-73
2022/02/07 05:58:40;;;;;;;9.23;1.73;;;5.70;87.60;;;;;;6155667;22;92397;-73
2022/02/07 06:01:26;;;;;;;13.10;2.70;;;5.70;87.90;;;;;;6155369;22;92432;-73
2022/02/07 06:03:57;;;;;;;18.67;2.88;;;5.80;87.70;;;;;;6127674;22;98759;-73
2022/02/07 06:06:24;;;;;;;17.58;3.20;;;5.80;87.20;;;;;;6128066;22;97419;-73
2022/02/07 06:08:52;;;;;;;14.60;2.40;;;5.90;86.00;;;;;;6128527;22;92487;-73
2022/02/07 06:11:21;;;;;;;19.85;3.50;;;5.90;85.50;;;;;;6104586;22;92391;-73
2022/02/07 06:13:52;;;;;;;9.32;1.77;;;5.80;85.60;;;;;;6128252;22;95464;-73
2022/02/07 06:16:19;;;;;;;10.60;2.40;;;5.80;85.90;;;;;;6155168;22;92809;-73
2022/02/07 06:18:53;;;;;;;15.88;2.67;;;5.80;85.70;;;;;;6128557;22;92343;-73
2022/02/07 06:21:26;;;;;;;13.43;2.35;;;5.80;85.40;;;;;;6105590;22;91685;-73
2022/02/07 06:23:57;;;;;;;16.75;2.65;;;5.80;85.20;;;;;;6127808;22;95536;-73
2022/02/07 06:26:25;;;;;;;14.35;3.03;;;5.70;85.20;;;;;;6128166;22;95737;-73
2022/02/07 06:28:55;;;;;;;16.13;3.15;;;5.60;85.30;;;;;;6126521;22;94789;-73
2022/02/07 06:31:24;;;;;;;12.43;2.17;;;5.60;85.30;;;;;;6104197;22;92477;-73
2022/02/07 06:33:52;;;;;;;15.63;2.42;;;5.60;84.60;;;;;;6128124;22;95804;-73
2022/02/07 06:36:20;;;;;;;14.77;2.30;;;5.60;85.10;;;;;;6155199;22;93621;-73
2022/02/07 06:38:48;;;;;;;14.35;2.58;;;5.50;85.10;;;;;;6128367;22;92515;-73
2022/02/07 06:41:16;;;;;;;15.18;2.50;;;5.50;85.50;;;;;;6103540;22;92501;-73
2022/02/07 06:43:44;;;;;;;18.17;3.35;;;5.50;85.30;;;;;;6127877;22;95374;-73
2022/02/07 06:46:12;;;;;;;16.15;2.45;;;5.40;85.30;;;;;;6128363;22;95200;-73
2022/02/07 06:48:41;;;;;;;16.88;3.45;;;5.40;85.40;;;;;;6129222;22;92376;-73
2022/02/07 06:51:11;;;;;;;14.52;3.17;;;5.30;85.70;;;;;;6154400;22;92441;-73
2022/02/07 06:53:42;;;;;;;14.35;2.60;;;5.30;86.10;;;;;;6127718;22;96472;-73
2022/02/07 06:56:09;;;;;;;13.13;2.13;;;5.30;86.30;;;;;;6104215;22;98007;-73
2022/02/07 06:58:37;;;;;;;21.40;5.55;;;5.20;86.30;;;;;;6129659;22;92416;-73
2022/02/07 07:01:06;;;;;;;19.27;3.20;;;5.20;86.50;;;;;;6129299;22;92576;-73
2022/02/07 07:03:37;;;;;;;12.88;2.40;;;5.20;86.60;;;;;;6154070;22;95374;-73
2022/02/07 07:06:04;;;;;;;16.58;2.72;;;5.20;86.80;;;;;;6128928;22;94937;-73
2022/02/07 07:08:37;;;;;;;20.75;3.50;;;5.20;86.60;;;;;;6129530;22;92432;-73
2022/02/07 07:11:06;;;;;;;15.87;2.70;;;5.10;86.80;;;;;;6129785;22;92112;-73
2022/02/07 07:13:47;;;;;;;15.80;2.60;;;5.10;86.80;;;;;;6128920;22;95393;-73
2022/02/07 07:19:06;;;;;;;21.27;3.03;;;5.10;87.00;;;;;;6119101;22;94784;-73
2022/02/07 07:21:35;;;;;;;9.55;2.45;;;5.00;87.10;;;;;;6154161;22;92468;-73
2022/02/07 07:24:04;;;;;;;14.18;2.33;;;5.00;87.10;;;;;;6128664;22;95519;-73
2022/02/07 07:26:33;;;;;;;11.88;2.42;;;5.00;87.20;;;;;;6128845;22;95167;-73
2022/02/07 07:29:13;;;;;;;15.57;2.63;;;5.00;87.10;;;;;;6129047;22;92373;-73
2022/02/07 07:31:48;;;;;;;17.50;4.25;;;5.00;87.00;;;;;;6129575;22;92472;-73
2022/02/07 07:34:18;;;;;;;19.88;3.67;;;5.10;87.50;;;;;;6129000;22;95823;-73
2022/02/07 07:36:48;;;;;;;22.65;4.28;;;5.10;87.20;;;;;;6129195;22;93840;-73
2022/02/07 07:39:17;;;;;;;18.27;3.55;;;5.20;87.00;;;;;;6128984;22;92406;-73
2022/02/07 07:41:48;;;;;;;19.08;7.05;;;5.30;87.40;;;;;;6129356;22;92493;-73
2022/02/07 07:44:28;;;;;;;17.15;3.38;;;5.40;87.10;;;;;;6127501;22;97948;-73
2022/02/07 07:47:15;;;;;;;19.13;3.30;;;5.50;86.70;;;;;;6153736;22;97833;-73
2022/02/07 07:50:27;;;;;;;18.02;2.97;;;5.50;86.70;;;;;;6093602;23;92909;-73
2022/02/07 07:53:10;;;;;;;16.90;3.13;;;5.60;86.30;;;;;;6148330;22;92604;-73
2022/02/07 08:04:25;;;;;;;15.60;2.67;;;5.80;85.10;;;;;;6156225;22;91560;-73
2022/02/07 08:07:05;;;;;;;19.35;3.63;;;5.90;84.70;;;;;;6129158;22;95430;-73
2022/02/07 08:12:23;;;;;;;18.02;3.97;;;6.20;84.60;;;;;;6127880;22;94826;-73
2022/02/07 08:14:51;;;;;;;18.63;3.58;;;6.40;84.40;;;;;;6129166;22;92390;-73
2022/02/07 08:17:28;;;;;;;15.27;3.20;;;6.50;83.80;;;;;;6131270;22;93109;-73
2022/02/07 08:19:56;;;;;;;19.45;3.17;;;6.60;83.20;;;;;;6105202;22;93106;-73
2022/02/07 08:22:24;;;;;;;17.92;3.28;;;6.70;83.00;;;;;;6128874;22;92441;-73
2022/02/07 08:24:55;;;;;;;18.45;2.80;;;6.70;83.40;;;;;;6129100;22;92500;-73
2022/02/07 08:27:27;;;;;;;15.50;3.33;;;6.70;83.20;;;;;;6129888;22;93205;-73
2022/02/07 08:29:55;;;;;;;19.52;3.30;;;6.70;83.20;;;;;;6129694;22;92880;-73
2022/02/07 08:32:23;;;;;;;13.18;3.22;;;6.70;83.30;;;;;;6129150;22;92828;-73
2022/02/07 08:34:52;;;;;;;22.75;3.88;;;6.70;82.80;;;;;;6128827;22;92441;-73
2022/02/07 08:37:19;;;;;;;13.57;2.88;;;6.80;83.30;;;;;;6126757;22;96871;-73
2022/02/07 08:39:46;;;;;;;18.05;3.53;;;6.80;83.40;;;;;;6104172;22;96525;-73
2022/02/07 08:42:13;;;;;;;19.50;4.03;;;6.90;83.30;;;;;;6129207;22;92423;-73
2022/02/07 08:44:40;;;;;;;21.08;3.88;;;6.90;83.30;;;;;;6129709;22;92453;-73
2022/02/07 08:47:07;;;;;;;21.73;3.90;;;6.90;83.00;;;;;;6155620;22;93218;-73
2022/02/07 08:49:36;;;;;;;18.92;3.28;;;6.90;83.10;;;;;;6128892;22;95425;-73
2022/02/07 08:52:03;;;;;;;14.48;2.58;;;7.00;83.00;;;;;;6130070;22;92564;-73
2022/02/07 08:54:32;;;;;;;16.52;3.10;;;7.00;83.60;;;;;;6129913;22;91712;-73
2022/02/07 08:57:11;;;;;;;17.42;3.35;;;7.00;83.50;;;;;;6155611;22;93299;-73
2022/02/07 08:59:52;;;;;;;22.65;3.92;;;7.00;83.60;;;;;;6155466;22;93027;-74
2022/02/07 09:03:15;;;;;;;24.17;3.67;;;7.10;84.00;;;;;;6153759;22;94795;-73
2022/02/07 09:07:46;;;;;;;27.95;5.45;;;7.20;85.50;;;;;;6155384;22;93201;-73
2022/02/07 09:10:13;;;;;;;19.40;3.63;;;7.30;85.00;;;;;;6128370;22;95454;-73
2022/02/07 09:12:46;;;;;;;17.58;3.55;;;7.30;85.00;;;;;;6129534;22;92461;-73
2022/02/07 09:15:33;;;;;;;23.38;4.40;;;7.30;85.10;;;;;;6155910;22;92370;-73
2022/02/07 09:18:07;;;;;;;20.80;3.90;;;7.50;85.20;;;;;;6133868;22;93097;-73
2022/02/07 09:20:38;;;;;;;24.88;3.97;;;7.50;85.00;;;;;;6156093;22;92953;-73
2022/02/07 09:23:05;;;;;;;27.42;4.28;;;7.60;85.10;;;;;;6156076;22;92317;-73
2022/02/07 09:25:32;;;;;;;21.75;4.30;;;7.60;84.80;;;;;;6128632;22;92823;-70
2022/02/07 09:28:00;;;;;;;26.70;4.20;;;7.70;84.30;;;;;;6127042;22;97890;-73
2022/02/07 09:30:28;;;;;;;27.52;4.30;;;7.80;84.50;;;;;;6128883;22;95346;-73
2022/02/07 09:32:55;;;;;;;21.95;4.20;;;7.90;83.30;;;;;;6129787;22;92710;-73
2022/02/07 09:35:22;;;;;;;23.00;4.55;;;7.90;82.30;;;;;;6128592;22;92426;-73
2022/02/07 09:37:49;;;;;;;15.93;3.42;;;7.90;82.70;;;;;;6128524;22;95912;-73
2022/02/07 09:40:19;;;;;;;20.35;3.97;;;8.00;81.90;;;;;;6155404;22;92414;-73
2022/02/07 09:42:54;;;;;;;15.02;3.70;;;8.10;80.20;;;;;;6128991;22;92431;-73
2022/02/07 09:45:31;;;;;;;22.73;4.25;;;8.20;80.50;;;;;;6129910;22;91668;-73
2022/02/07 09:47:59;;;;;;;17.42;3.97;;;8.30;79.90;;;;;;6130917;22;93307;-73
2022/02/07 09:50:27;;;;;;;19.90;3.92;;;8.40;78.60;;;;;;6155506;22;92832;-73
2022/02/07 09:52:54;;;;;;;22.90;3.70;;;8.40;78.50;;;;;;6154470;22;94957;-73
2022/02/07 09:55:22;;;;;;;14.05;2.95;;;8.50;78.30;;;;;;6128716;22;92447;-70
2022/02/07 09:57:53;;;;;;;19.55;3.25;;;8.60;77.30;;;;;;6128065;22;95721;-70
2022/02/07 10:00:30;;;;;;;19.10;3.70;;;8.60;76.80;;;;;;6128643;22;94074;-70
2022/02/07 10:03:13;;;;;;;20.23;3.70;;;8.70;78.40;;;;;;6155558;22;92318;-70
2022/02/07 10:06:09;;;;;;;20.30;3.70;;;8.70;76.30;;;;;;6128484;22;92753;-70
2022/02/07 10:08:49;;;;;;;18.70;4.15;;;8.70;77.40;;;;;;6128032;22;95654;-70
2022/02/07 10:11:37;;;;;;;21.88;4.03;;;8.80;76.80;;;;;;6129036;22;95387;-70
2022/02/07 10:14:20;;;;;;;24.10;4.80;;;8.70;77.70;;;;;;6155462;22;92336;-70
2022/02/07 10:17:09;;;;;;;17.15;3.65;;;8.70;76.70;;;;;;6128311;22;93291;-70
2022/02/07 10:19:58;;;;;;;22.52;3.70;;;8.70;76.80;;;;;;6105962;22;98229;-70
2022/02/07 10:40:09;;;;;;;11.30;2.45;;;9.00;76.30;;;;;;6155482;22;91582;-77
2022/02/07 10:43:08;;;;;;;21.17;3.08;;;9.00;73.70;;;;;;6155356;22;93171;-77
2022/02/07 10:45:53;;;;;;;18.83;3.60;;;9.10;75.40;;;;;;6154829;22;92879;-74
2022/02/07 10:48:45;;;;;;;20.10;3.75;;;9.20;75.20;;;;;;6152729;22;94823;-69
2022/02/07 10:51:21;;;;;;;16.02;3.20;;;9.30;75.50;;;;;;6128408;22;92346;-70
2022/02/07 10:54:08;;;;;;;19.27;4.28;;;9.30;74.60;;;;;;6154451;22;93218;-70
2022/02/07 10:56:40;;;;;;;17.48;3.25;;;9.30;73.70;;;;;;6127558;22;94697;-70
2022/02/07 10:59:11;;;;;;;15.35;2.80;;;9.30;73.10;;;;;;6155257;22;92272;-70
2022/02/07 11:04:32;;;;;;;24.23;3.63;;;9.20;72.50;;;;;;6127882;22;98397;-70
2022/02/07 11:07:02;;;;;;;18.95;4.00;;;9.30;73.60;;;;;;6154998;22;92855;-70
2022/02/07 11:09:40;;;;;;;22.55;3.70;;;9.20;72.70;;;;;;6128529;22;92706;-71
2022/02/07 11:15:03;;;;;;;22.08;4.28;;;9.40;73.00;;;;;;6126160;22;98099;-71
2022/02/07 11:18:00;;;;;;;20.92;4.05;;;9.40;72.20;;;;;;6154638;22;95383;-71
2022/02/07 11:20:46;;;;;;;11.88;3.63;;;9.50;72.70;;;;;;6127164;22;92430;-71
2022/02/07 11:23:36;;;;;;;15.57;4.05;;;9.50;71.20;;;;;;6154731;22;92282;-71
2022/02/07 11:26:31;;;;;;;18.85;3.63;;;9.50;71.20;;;;;;6128442;22;93249;-71
2022/02/07 11:28:59;;;;;;;20.17;4.40;;;9.60;72.40;;;;;;6127227;22;93918;-71
2022/02/07 11:31:39;;;;;;;18.23;3.13;;;9.70;72.30;;;;;;6154668;22;92300;-71
2022/02/07 11:34:11;;;;;;;15.93;3.10;;;9.80;71.20;;;;;;6156156;22;91643;-71
2022/02/07 11:36:40;;;;;;;16.90;3.15;;;9.90;71.80;;;;;;6156126;22;93344;-71
2022/02/07 11:39:13;;;;;;;9.98;2.50;;;9.90;69.30;;;;;;6128955;22;92900;-71
2022/02/07 11:41:58;;;;;;;12.73;2.70;;;10.00;69.70;;;;;;6127978;22;95410;-71
2022/02/07 11:44:49;;;;;;;21.23;3.95;;;10.00;69.10;;;;;;6156165;22;92902;-71
2022/02/07 11:47:22;;;;;;;11.68;3.13;;;10.00;68.80;;;;;;6128605;22;94567;-71
2022/02/07 11:49:52;;;;;;;18.17;3.67;;;9.90;67.70;;;;;;6128478;22;95415;-72
2022/02/07 11:52:29;;;;;;;12.95;2.95;;;10.00;69.30;;;;;;6156141;22;92383;-71
2022/02/07 11:54:58;;;;;;;9.45;1.88;;;10.20;69.50;;;;;;6129259;22;92485;-71
2022/02/07 11:57:37;;;;;;;19.33;3.20;;;10.20;67.30;;;;;;6155424;22;93236;-72
2022/02/07 12:00:20;;;;;;;18.00;3.72;;;10.30;67.80;;;;;;6155856;22;92950;-71
2022/02/07 12:02:52;;;;;;;19.77;4.15;;;10.40;67.10;;;;;;6155802;22;92298;-71
2022/02/07 12:05:23;;;;;;;17.83;3.45;;;10.50;67.20;;;;;;6129441;22;92429;-72
2022/02/07 12:08:06;;;;;;;14.80;2.97;;;10.50;67.30;;;;;;6127608;22;95808;-71
2022/02/07 12:10:39;;;;;;;14.73;2.95;;;10.60;67.80;;;;;;6155725;22;95170;-71
2022/02/07 12:13:28;;;;;;;10.15;2.58;;;10.60;67.40;;;;;;6129090;22;92406;-71
2022/02/07 12:15:57;;;;;;;12.55;3.05;;;10.80;66.80;;;;;;6155640;22;92804;-71
2022/02/07 12:18:25;;;;;;;13.00;2.78;;;10.90;66.50;;;;;;6128674;22;95761;-71
2022/02/07 12:20:55;;;;;;;14.02;2.72;;;10.80;64.40;;;;;;6128773;22;95609;-71
2022/02/07 12:23:31;;;;;;;10.48;2.53;;;10.80;65.60;;;;;;6156207;22;92389;-71
2022/02/07 12:26:04;;;;;;;13.80;2.67;;;10.90;64.80;;;;;;6155984;22;91704;-71
2022/02/07 12:28:43;;;;;;;10.15;2.60;;;10.70;64.70;;;;;;6129423;22;93065;-71
2022/02/07 12:33:46;;;;;;;12.70;2.73;;;10.30;65.10;;;;;;6154565;22;94977;-72
2022/02/07 12:36:13;;;;;;;13.18;3.30;;;10.10;64.30;;;;;;6155748;22;92454;-71
2022/02/07 12:38:44;;;;;;;12.73;2.42;;;10.00;65.80;;;;;;6129171;22;92937;-71
2022/02/07 12:41:13;;;;;;;14.45;3.10;;;10.00;67.70;;;;;;6155382;22;93032;-71
2022/02/07 12:43:48;;;;;;;8.95;2.42;;;10.10;68.10;;;;;;6128617;22;97745;-71
2022/02/07 12:46:19;;;;;;;19.52;3.05;;;10.20;68.20;;;;;;6129363;22;92780;-71
2022/02/07 12:48:58;;;;;;;11.32;2.45;;;10.40;67.80;;;;;;6128740;22;95670;-71
2022/02/07 12:51:42;;;;;;;14.93;3.33;;;10.50;67.70;;;;;;6129680;22;92970;-71
2022/02/07 12:54:21;;;;;;;11.82;2.75;;;10.60;67.40;;;;;;6155621;22;92295;-71
2022/02/07 12:56:49;;;;;;;12.25;2.60;;;10.50;65.80;;;;;;6155723;22;92461;-71
2022/02/07 12:59:16;;;;;;;10.57;2.20;;;10.70;66.60;;;;;;6153873;22;95521;-72
2022/02/07 13:01:45;;;;;;;12.00;3.25;;;10.80;65.30;;;;;;6155630;22;94175;-71
2022/02/07 13:04:18;;;;;;;15.00;2.17;;;10.90;65.50;;;;;;6104982;22;92504;-72
2022/02/07 13:06:54;;;;;;;16.25;3.00;;;11.10;64.60;;;;;;6128607;22;92536;-71
2022/02/07 13:09:33;;;;;;;12.07;2.65;;;11.20;63.60;;;;;;6129266;22;93105;-71
2022/02/07 13:14:48;;;;;;;14.70;2.60;;;11.20;63.40;;;;;;6155649;22;92350;-72
2022/02/07 13:17:18;;;;;;;13.52;2.75;;;11.10;62.20;;;;;;6155833;22;91624;-71
2022/02/07 13:19:48;;;;;;;10.10;2.20;;;11.00;62.40;;;;;;6129587;22;93370;-71
2022/02/07 13:22:18;;;;;;;15.98;2.67;;;10.80;61.70;;;;;;6154424;22;105761;-72
2022/02/07 13:24:46;;;;;;;11.77;2.78;;;10.80;63.00;;;;;;6154139;22;94754;-72
2022/02/07 13:27:15;;;;;;;11.95;3.28;;;10.70;63.30;;;;;;6155405;22;92389;-72
2022/02/07 13:29:45;;;;;;;12.90;2.83;;;10.50;63.40;;;;;;6155368;22;92442;-72
2022/02/07 13:32:15;;;;;;;12.32;2.25;;;10.40;64.80;;;;;;6155053;22;94050;-72
2022/02/07 13:34:45;;;;;;;13.52;2.70;;;10.30;64.80;;;;;;6129378;22;92566;-72
2022/02/07 13:37:22;;;;;;;12.02;2.08;;;10.20;65.70;;;;;;6155035;22;92503;-73
2022/02/07 13:39:52;;;;;;;17.13;2.55;;;10.20;65.10;;;;;;6155114;22;93038;-72
2022/02/07 13:42:24;;;;;;;14.32;2.45;;;10.20;65.80;;;;;;6155471;22;93042;-72
2022/02/07 13:44:55;;;;;;;12.68;2.42;;;10.20;66.10;;;;;;6129103;22;92490;-72
2022/02/07 13:47:26;;;;;;;11.77;2.75;;;10.10;65.60;;;;;;6129192;22;92630;-72
2022/02/07 13:49:54;;;;;;;11.27;2.55;;;10.10;65.30;;;;;;6153773;22;95607;-72
2022/02/07 13:52:39;;;;;;;10.27;2.33;;;10.20;65.90;;;;;;6128688;22;97967;-71
2022/02/07 13:55:22;;;;;;;16.05;2.63;;;10.30;66.30;;;;;;6128637;22;92447;-72
2022/02/07 13:58:00;;;;;;;11.82;2.45;;;10.40;65.70;;;;;;6155349;22;92373;-72
2022/02/07 14:00:34;;;;;;;14.80;2.80;;;10.40;65.10;;;;;;6155163;22;93086;-72
2022/02/07 14:03:19;;;;;;;13.98;2.15;;;10.50;64.40;;;;;;6155093;22;92979;-72
2022/02/07 14:05:48;;;;;;;14.45;3.25;;;10.60;63.90;;;;;;6128793;22;92395;-71
2022/02/07 14:08:27;;;;;;;13.57;2.75;;;10.60;64.80;;;;;;6142271;22;92131;-72
2022/02/07 14:10:55;;;;;;;14.05;2.90;;;10.60;65.10;;;;;;6131328;22;93118;-72
2022/02/07 14:13:22;;;;;;;11.75;2.42;;;10.60;64.80;;;;;;6154904;22;93145;-72
2022/02/07 14:15:49;;;;;;;10.55;1.85;;;10.50;64.90;;;;;;6151590;22;94732;-72
2022/02/07 14:18:18;;;;;;;11.90;2.83;;;10.50;65.50;;;;;;6154748;22;92466;-69
2022/02/07 14:20:47;;;;;;;18.35;2.72;;;10.50;65.80;;;;;;6155059;22;93300;-72
2022/02/07 14:23:15;;;;;;;9.40;2.67;;;10.60;65.80;;;;;;6153288;22;93355;-72
2022/02/07 14:25:46;;;;;;;11.73;1.92;;;10.60;65.80;;;;;;6155327;22;92472;-72
2022/02/07 14:28:14;;;;;;;12.00;2.35;;;10.70;65.60;;;;;;6153075;22;92446;-72
2022/02/07 14:30:42;;;;;;;9.98;2.72;;;10.70;65.40;;;;;;6153492;22;93131;-72
2022/02/07 14:33:09;;;;;;;9.05;2.05;;;10.70;65.80;;;;;;6153537;22;92871;-71
2022/02/07 14:35:36;;;;;;;13.27;2.72;;;10.60;65.10;;;;;;6155140;22;92294;-72
2022/02/07 14:38:05;;;;;;;9.82;2.35;;;10.50;64.40;;;;;;6153439;22;92411;-71
2022/02/07 14:40:37;;;;;;;11.88;1.95;;;10.30;64.10;;;;;;6153329;22;95636;-72
2022/02/07 14:43:08;;;;;;;12.52;2.50;;;10.30;65.00;;;;;;6154796;22;95484;-71
2022/02/07 14:45:43;;;;;;;8.32;2.05;;;10.10;64.90;;;;;;6128379;22;92470;-68
2022/02/07 14:48:10;;;;;;;14.32;2.40;;;10.00;65.70;;;;;;6154236;22;92299;-71
2022/02/07 14:50:38;;;;;;;10.23;1.98;;;9.90;66.30;;;;;;6154709;22;93234;-68
2022/02/07 14:53:06;;;;;;;12.27;2.08;;;9.80;67.20;;;;;;6154899;22;92682;-68
2022/02/07 14:55:33;;;;;;;11.35;1.80;;;9.80;67.70;;;;;;6128958;22;92492;-68
2022/02/07 14:58:00;;;;;;;8.73;1.92;;;9.70;68.00;;;;;;6155194;22;91682;-68
2022/02/07 15:00:28;;;;;;;9.70;2.10;;;9.70;69.00;;;;;;6154469;22;93391;-68
2022/02/07 15:02:58;;;;;;;11.93;2.78;;;9.70;68.90;;;;;;6127709;22;95445;-68
2022/02/07 15:05:29;;;;;;;10.98;1.70;;;9.70;69.40;;;;;;6153207;22;94990;-68
2022/02/07 15:07:58;;;;;;;12.93;2.28;;;9.60;69.40;;;;;;6128466;22;92436;-68
2022/02/07 15:10:25;;;;;;;11.10;2.35;;;9.60;69.50;;;;;;6129507;22;93226;-68
2022/02/07 15:12:52;;;;;;;9.75;2.08;;;9.60;69.50;;;;;;6153778;22;103964;-69
2022/02/07 15:15:19;;;;;;;11.38;2.40;;;9.60;69.60;;;;;;6129810;22;92317;-69
2022/02/07 15:17:46;;;;;;;13.25;2.42;;;9.50;69.00;;;;;;6129197;22;92503;-69
2022/02/07 15:20:14;;;;;;;10.15;1.98;;;9.50;69.10;;;;;;6104141;22;94318;-69
2022/02/07 15:22:47;;;;;;;10.80;1.98;;;9.40;69.10;;;;;;6156338;22;93167;-69
2022/02/07 15:25:19;;;;;;;12.95;2.88;;;9.40;69.40;;;;;;6129905;22;92900;-69
2022/02/07 15:27:48;;;;;;;10.55;2.58;;;9.30;69.40;;;;;;6129642;22;92437;-69
2022/02/07 15:30:41;;;;;;;14.32;2.45;;;9.20;69.80;;;;;;6154238;22;95988;-69
2022/02/07 15:33:15;;;;;;;9.30;2.03;;;9.10;69.90;;;;;;6155793;22;95447;-69